»·PEaware :: N81041 KOXR-KSBA

N81041 :: KOXR-KSBA

FLIGHT INFORMATION

Flight Status: Arrived
Operator: Privately registered:
United States
More flights under this callsign
Pilot: John C. (12173)
Aircraft: Unknown
(AA5B)
More flights by this aircraft type
Origin: KOXR Oxnard
United States
Destination: KSBA Santa Barbara Mun
United States
More flights between these airports :: More routes between these airports
Route: +KWANG
File this flight plan on PilotEdge
Remarks:
Altitude:
(Current/Filed)
4,000ft
Speed:
(Current/Filed)
100kts
Departed: 07-Sep-18 11:21 AM
Arrived: 07-Sep-18 12:04 PM
Distance/Time
Traveled:
34nm/0:43
Distance/Time
To Go:
Arrived

Flight Plot

Page will automatically refresh every two minutes.


Map Options




Map Legend


Flown Route
Filed Route
Departure Airport
Arrival Airport
Navaid (VOR, NDB)
Fix

Horizontal Profiles

Position Reports

Time Latitude Longitude Heading Altitude Ground
Speed
07-Sep-18 11:12 34.198821 -119.198496 359 41ft 0kts
07-Sep-18 11:13 34.198821 -119.198496 359 41ft 0kts
07-Sep-18 11:14 34.198821 -119.198496 359 41ft 0kts
07-Sep-18 11:15 34.198821 -119.198496 359 41ft 0kts
07-Sep-18 11:16 34.198821 -119.198496 359 41ft 0kts
07-Sep-18 11:17 34.198821 -119.198496 359 41ft 0kts
07-Sep-18 11:18 34.198821 -119.198496 359 41ft 0kts
07-Sep-18 11:19 34.198821 -119.198496 359 41ft 0kts
07-Sep-18 11:20 34.199842 -119.197608 28 41ft 0kts
07-Sep-18 11:21 34.199842 -119.197608 28 41ft 0kts
07-Sep-18 11:22 34.200662 -119.197657 312 42ft 8kts
07-Sep-18 11:23 34.200758 -119.214074 270 604ft 83kts
07-Sep-18 11:24 34.197447 -119.238648 189 1853ft 66kts
07-Sep-18 11:25 34.196591 -119.260852 267 2746ft 83kts
07-Sep-18 11:26 34.201859 -119.282512 287 3717ft 89kts
07-Sep-18 11:27 34.215551 -119.304491 300 4070ft 124kts
07-Sep-18 11:28 34.230700 -119.332518 297 4124ft 136kts
07-Sep-18 11:29 34.243975 -119.361310 290 4092ft 138kts
07-Sep-18 11:30 34.256668 -119.390103 299 3910ft 139kts
07-Sep-18 11:31 34.268938 -119.417278 287 3858ft 136kts
07-Sep-18 11:32 34.271658 -119.447662 274 3824ft 133kts
07-Sep-18 11:33 34.272712 -119.478877 270 3901ft 131kts
07-Sep-18 11:34 34.272282 -119.511329 260 3974ft 131kts
07-Sep-18 11:35 34.273771 -119.544399 273 4056ft 134kts
07-Sep-18 11:36 34.274458 -119.578608 262 4109ft 136kts
07-Sep-18 11:37 34.274290 -119.613081 275 4123ft 134kts
07-Sep-18 11:38 34.278318 -119.646080 265 3994ft 136kts
07-Sep-18 11:39 34.278177 -119.679983 266 4009ft 131kts
07-Sep-18 11:40 34.277177 -119.714223 266 3967ft 134kts
07-Sep-18 11:41 34.279006 -119.750102 273 3970ft 134kts
07-Sep-18 11:42 34.279631 -119.786414 262 3965ft 133kts
07-Sep-18 11:43 34.280684 -119.822892 277 3965ft 135kts
07-Sep-18 11:44 34.282545 -119.859839 270 3979ft 133kts
07-Sep-18 11:45 34.279874 -119.896391 263 3934ft 135kts
07-Sep-18 11:46 34.277409 -119.934276 262 3966ft 132kts
07-Sep-18 11:47 34.275890 -119.972158 253 3932ft 134kts
07-Sep-18 11:48 34.271243 -120.010915 267 3963ft 133kts
07-Sep-18 11:49 34.266963 -120.054307 256 4009ft 128kts
07-Sep-18 11:50 34.275436 -120.093130 334 3954ft 136kts
07-Sep-18 11:51 34.312618 -120.097438 358 3806ft 134kts
07-Sep-18 11:52 34.343749 -120.093314 7 3523ft 135kts
07-Sep-18 11:53 34.377496 -120.095494 0 3415ft 132kts
07-Sep-18 11:54 34.413425 -120.093104 6 3550ft 133kts
07-Sep-18 11:55 34.427862 -120.070035 103 3573ft 119kts
07-Sep-18 11:56 34.423939 -120.043781 97 3065ft 124kts
07-Sep-18 11:57 34.424284 -120.017843 88 2640ft 120kts
07-Sep-18 11:58 34.424734 -119.994443 91 2242ft 108kts
07-Sep-18 11:59 34.425598 -119.972304 97 1841ft 100kts
07-Sep-18 12:00 34.425583 -119.952711 80 1681ft 97kts
07-Sep-18 12:01 34.426378 -119.931581 86 1336ft 101kts
07-Sep-18 12:02 34.426267 -119.900184 87 778ft 89kts
07-Sep-18 12:03 34.427523 -119.875235 93 272ft 72kts
07-Sep-18 12:04 34.427578 -119.856510 95 82ft 62kts
07-Sep-18 12:05 34.427717 -119.843368 87 9ft 49kts
07-Sep-18 12:06 34.429381 -119.842232 349 8ft 17kts
07-Sep-18 12:07 34.431783 -119.836190 58 12ft 22kts
07-Sep-18 12:08 34.432167 -119.835803 36 12ft 1kts

Navigation Log

Ident Type
1. KOXR Airport
2. KWANG Fix
3. KSBA Airport